Time;durP1;ratioP1;P1;durP2;ratioP2;P2;SDS_P1;SDS_P2;PMS_P1;PMS_P2;Temp;Humidity;BMP_temperature;BMP_pressure;BME280_temperature;BME280_humidity;BME280_pressure;Samples;Min_cycle;Max_cycle;Signal;HPM_P1;HPM_P2
2022/10/22 00:09:37;;;;;;;7.97;2.50;;;17.70;76.30;;;;;;21172512;28;20058;-62
2022/10/22 00:19:39;;;;;;;4.47;2.22;;;17.60;77.20;;;;;;21176433;28;20051;-63
2022/10/22 00:29:41;;;;;;;6.00;2.50;;;17.60;77.40;;;;;;21175506;28;20051;-64
2022/10/22 00:39:43;;;;;;;6.43;2.53;;;17.60;77.90;;;;;;21174802;28;20048;-63
2022/10/22 00:49:45;;;;;;;7.65;3.10;;;17.60;78.10;;;;;;21173510;28;20062;-63
2022/10/22 00:59:47;;;;;;;10.80;2.88;;;17.60;78.70;;;;;;21173689;28;20051;-63
2022/10/22 01:10:09;;;;;;;7.60;3.42;;;17.50;78.90;;;;;;21172998;28;20079;-63
2022/10/22 01:20:29;;;;;;;8.00;3.53;;;17.50;78.70;;;;;;21171200;28;20065;-62
2022/10/22 01:30:35;;;;;;;9.68;2.80;;;17.40;78.80;;;;;;21171941;28;20468;-62
2022/10/22 01:40:42;;;;;;;8.82;3.45;;;17.40;78.90;;;;;;21170017;28;20415;-62
2022/10/22 01:51:07;;;;;;;8.53;4.10;;;17.30;79.40;;;;;;21168123;28;20123;-61
2022/10/22 02:01:48;;;;;;;9.87;3.73;;;17.20;80.00;;;;;;21168011;28;20060;-64
2022/10/22 02:11:50;;;;;;;6.32;3.08;;;17.30;79.20;;;;;;21167130;28;20048;-62
2022/10/22 02:22:08;;;;;;;10.43;6.65;;;17.30;79.70;;;;;;21166698;28;20123;-60
2022/10/22 02:32:15;;;;;;;9.43;3.70;;;17.30;79.80;;;;;;21165321;28;20052;-61
2022/10/22 02:42:27;;;;;;;7.00;3.30;;;17.20;79.80;;;;;;21165324;28;20525;-61
2022/10/22 02:52:39;;;;;;;9.95;3.58;;;17.30;79.50;;;;;;21164186;28;20097;-61
2022/10/22 03:02:40;;;;;;;10.20;3.92;;;17.20;79.40;;;;;;21163557;28;20048;-62
2022/10/22 03:12:42;;;;;;;5.03;2.50;;;17.30;78.90;;;;;;21163008;28;20058;-61
2022/10/22 03:22:45;;;;;;;6.95;2.90;;;17.20;78.40;;;;;;21162440;28;20055;-62
2022/10/22 03:32:47;;;;;;;5.80;2.80;;;17.20;78.70;;;;;;21162528;28;20538;-61
2022/10/22 03:42:48;;;;;;;5.07;2.83;;;17.20;78.30;;;;;;21169511;28;20388;-62
2022/10/22 03:52:49;;;;;;;4.82;2.30;;;17.10;78.60;;;;;;21178739;28;20125;-61
2022/10/22 04:02:52;;;;;;;2.92;1.88;;;17.00;77.70;;;;;;21177181;28;20050;-61
2022/10/22 04:12:54;;;;;;;4.30;2.33;;;16.90;77.30;;;;;;21177216;28;20079;-61
2022/10/22 04:22:57;;;;;;;5.10;2.57;;;16.90;76.20;;;;;;21176193;28;20502;-62
2022/10/22 04:32:58;;;;;;;5.30;3.90;;;16.70;77.00;;;;;;21175531;28;20047;-62
2022/10/22 04:43:01;;;;;;;7.03;4.90;;;16.70;77.00;;;;;;21174134;28;20076;-61
2022/10/22 04:53:02;;;;;;;8.60;4.45;;;16.70;77.20;;;;;;21172523;28;20055;-61
2022/10/22 05:03:03;;;;;;;4.55;3.53;;;16.70;77.30;;;;;;21173294;28;20130;-61
2022/10/22 05:13:05;;;;;;;5.50;3.78;;;16.70;77.20;;;;;;21172222;28;20541;-61
2022/10/22 05:23:07;;;;;;;5.72;3.88;;;16.70;77.40;;;;;;21171414;28;20108;-61
2022/10/22 05:33:08;;;;;;;8.05;4.35;;;16.60;77.70;;;;;;21170070;28;20101;-60
2022/10/22 05:43:10;;;;;;;6.30;4.28;;;16.60;77.60;;;;;;21151424;28;20122;-61
2022/10/22 05:53:11;;;;;;;9.15;5.45;;;16.50;78.00;;;;;;21168476;28;20055;-61
2022/10/22 06:03:13;;;;;;;8.65;6.05;;;16.40;78.00;;;;;;21167282;28;20054;-60
2022/10/22 06:13:15;;;;;;;8.90;5.18;;;16.40;78.30;;;;;;21167270;28;20442;-61
2022/10/22 06:23:16;;;;;;;9.98;5.68;;;16.30;78.70;;;;;;21166698;28;20075;-61
2022/10/22 06:33:18;;;;;;;11.85;6.93;;;16.10;79.90;;;;;;21166245;28;20146;-61
2022/10/22 06:43:20;;;;;;;12.15;5.90;;;16.10;80.50;;;;;;21164201;28;20515;-61
2022/10/22 06:53:22;;;;;;;10.07;5.57;;;16.20;80.20;;;;;;21164441;28;20143;-60
2022/10/22 07:03:23;;;;;;;12.23;8.20;;;16.30;80.20;;;;;;21163905;28;20043;-60
2022/10/22 07:13:25;;;;;;;14.90;9.93;;;16.30;80.50;;;;;;21162132;28;20047;-60
2022/10/22 07:23:28;;;;;;;14.88;10.15;;;16.30;80.50;;;;;;21162275;28;20476;-61
2022/10/22 07:33:30;;;;;;;10.05;7.25;;;16.30;80.50;;;;;;21143779;28;20215;-60
2022/10/22 07:43:32;;;;;;;14.48;10.38;;;16.50;80.40;;;;;;21161620;28;20055;-60
2022/10/22 07:53:33;;;;;;;20.63;14.60;;;16.70;80.10;;;;;;21161193;28;20082;-60
2022/10/22 08:03:35;;;;;;;20.05;10.73;;;16.70;79.60;;;;;;21161248;28;20442;-62
2022/10/22 08:13:37;;;;;;;12.05;7.80;;;16.90;79.20;;;;;;21160039;28;20059;-62
2022/10/22 08:23:38;;;;;;;11.18;6.50;;;17.10;78.50;;;;;;21161434;28;20518;-64
2022/10/22 08:33:41;;;;;;;9.27;6.50;;;17.20;78.10;;;;;;21174016;28;20058;-63
2022/10/22 08:44:00;;;;;;;9.60;6.68;;;17.40;76.80;;;;;;21155044;28;20047;-63
2022/10/22 08:54:18;;;;;;;9.77;5.57;;;17.60;76.60;;;;;;21172790;28;20100;-62
2022/10/22 09:04:33;;;;;;;10.15;6.30;;;17.70;76.00;;;;;;21172469;28;20082;-62
2022/10/22 09:14:34;;;;;;;8.30;5.47;;;17.70;76.10;;;;;;21171657;28;20048;-60
2022/10/22 09:24:47;;;;;;;8.75;5.68;;;18.00;76.00;;;;;;21170681;28;20048;-61
2022/10/22 09:34:54;;;;;;;8.93;6.20;;;18.10;75.80;;;;;;21169555;28;20044;-64
2022/10/22 09:44:58;;;;;;;7.72;4.60;;;18.30;74.60;;;;;;21167144;28;20384;-68
2022/10/22 09:55:16;;;;;;;7.05;4.90;;;19.60;69.30;;;;;;21167745;28;20047;-62
2022/10/22 10:05:24;;;;;;;7.20;4.32;;;19.30;70.00;;;;;;21166449;28;20507;-63
2022/10/22 10:15:36;;;;;;;6.47;3.83;;;19.00;72.30;;;;;;21163695;28;20055;-64
2022/10/22 10:25:57;;;;;;;5.73;3.83;;;20.30;67.20;;;;;;21163890;28;20048;-62
2022/10/22 10:36:07;;;;;;;8.18;3.72;;;20.10;66.80;;;;;;21146665;28;20047;-63
2022/10/22 10:46:29;;;;;;;6.80;2.75;;;19.80;66.60;;;;;;21164164;28;20161;-62
2022/10/22 10:56:43;;;;;;;6.65;3.25;;;19.80;65.40;;;;;;21163041;28;20069;-62
2022/10/22 11:06:45;;;;;;;;;;;19.80;66.40;;;;;;21163546;28;20039;-61
2022/10/22 11:17:04;;;;;;;5.50;3.30;;;20.00;65.20;;;;;;21162695;28;19926;-61
2022/10/22 11:27:48;;;;;;;6.95;3.42;;;20.20;64.50;;;;;;21163142;28;20410;-62
2022/10/22 11:37:53;;;;;;;13.52;7.68;;;20.30;63.60;;;;;;20737914;28;20054;-64
2022/10/22 11:48:10;;;;;;;4.88;3.22;;;20.40;63.60;;;;;;20737408;28;20046;-61
2022/10/22 11:58:30;;;;;;;8.35;5.00;;;20.70;61.60;;;;;;20737090;28;20085;-61
2022/10/22 12:08:32;;;;;;;7.28;3.25;;;20.70;62.50;;;;;;20837729;28;20048;-61
2022/10/22 12:18:39;;;;;;;3.33;1.77;;;21.00;61.10;;;;;;21007833;28;20139;-63
2022/10/22 12:28:40;;;;;;;6.90;3.10;;;21.20;55.90;;;;;;21006848;28;20049;-62
2022/10/22 12:38:46;;;;;;;6.63;2.20;;;21.20;56.10;;;;;;21005734;28;20076;-62
2022/10/22 12:48:46;;;;;;;6.35;4.13;;;21.60;56.30;;;;;;21143887;28;20418;-59
2022/10/22 12:58:50;;;;;;;4.45;2.45;;;21.70;54.90;;;;;;21172237;28;20126;-61
2022/10/22 13:09:00;;;;;;;5.72;2.83;;;21.80;54.90;;;;;;21172458;28;20044;-63
2022/10/22 13:19:01;;;;;;;8.18;3.22;;;21.80;53.10;;;;;;21171378;28;20126;-63
2022/10/22 13:29:09;;;;;;;11.38;4.80;;;22.00;53.60;;;;;;21171112;28;20090;-65
2022/10/22 13:39:18;;;;;;;7.05;2.50;;;22.10;54.10;;;;;;21169533;28;20048;-62
2022/10/22 13:49:22;;;;;;;3.80;2.17;;;22.20;52.80;;;;;;21168692;28;20066;-63
2022/10/22 13:59:23;;;;;;;6.57;2.90;;;22.10;53.60;;;;;;21168902;28;20564;-66
2022/10/22 14:09:28;;;;;;;5.47;2.58;;;22.20;54.80;;;;;;21167253;28;20062;-62
2022/10/22 14:19:30;;;;;;;3.88;1.80;;;22.30;54.80;;;;;;21166557;28;20102;-61
2022/10/22 14:29:32;;;;;;;4.75;1.88;;;22.20;54.70;;;;;;21166145;28;20058;-64
2022/10/22 14:39:34;;;;;;;2.77;2.07;;;22.20;55.60;;;;;;21165900;28;20353;-64
2022/10/22 14:49:36;;;;;;;4.17;3.10;;;22.40;55.00;;;;;;21163787;28;20082;-63
2022/10/22 14:59:38;;;;;;;3.20;1.92;;;22.40;55.80;;;;;;21145978;28;20052;-62
2022/10/22 15:09:40;;;;;;;5.73;2.83;;;22.50;56.30;;;;;;21162988;28;20043;-64
2022/10/22 15:19:42;;;;;;;2.05;1.15;;;22.50;56.60;;;;;;21162953;28;20048;-64
2022/10/22 15:29:44;;;;;;;2.97;1.33;;;22.60;55.40;;;;;;21164050;28;20055;-65
2022/10/22 15:39:46;;;;;;;3.15;1.55;;;22.80;53.60;;;;;;21170804;28;20062;-64
2022/10/22 15:49:48;;;;;;;3.00;1.23;;;22.80;53.90;;;;;;21178560;28;20063;-66
2022/10/22 15:59:50;;;;;;;3.20;1.10;;;22.90;51.50;;;;;;21177820;28;20083;-63
2022/10/22 16:10:01;;;;;;;4.28;1.42;;;23.00;51.10;;;;;;21177628;28;20135;-66
2022/10/22 16:20:03;;;;;;;3.22;1.65;;;23.00;51.50;;;;;;21177859;28;20393;-66
2022/10/22 16:30:05;;;;;;;3.23;1.53;;;22.90;51.40;;;;;;21157459;28;20083;-65
2022/10/22 16:40:08;;;;;;;3.83;1.87;;;22.80;48.30;;;;;;21175197;28;20044;-66
2022/10/22 16:50:10;;;;;;;3.55;1.10;;;22.80;47.80;;;;;;21174122;28;20509;-65
2022/10/22 17:00:12;;;;;;;5.70;1.80;;;22.70;47.00;;;;;;21174371;28;20479;-66
2022/10/22 17:10:13;;;;;;;7.45;4.32;;;22.70;47.40;;;;;;21171831;28;20052;-65
2022/10/22 17:20:14;;;;;;;6.72;1.92;;;22.50;47.80;;;;;;21171689;28;20043;-65
2022/10/22 17:30:18;;;;;;;4.68;1.20;;;22.40;48.40;;;;;;21170763;28;20051;-62
2022/10/22 17:40:19;;;;;;;3.05;0.82;;;21.40;50.80;;;;;;21169722;28;20058;-63
2022/10/22 17:50:20;;;;;;;2.15;1.15;;;19.90;55.10;;;;;;21168615;28;20056;-65
2022/10/22 18:00:22;;;;;;;3.78;1.77;;;19.30;57.80;;;;;;21167394;28;20043;-61
2022/10/22 18:10:24;;;;;;;2.00;0.60;;;19.30;58.20;;;;;;21168746;28;20044;-63
2022/10/22 18:20:25;;;;;;;1.17;0.65;;;18.90;60.30;;;;;;21167098;28;20103;-62
2022/10/22 18:30:27;;;;;;;1.40;0.70;;;18.50;63.70;;;;;;21166878;28;20411;-63
2022/10/22 18:40:29;;;;;;;2.33;1.38;;;18.30;67.40;;;;;;21165994;28;20514;-63
2022/10/22 18:50:30;;;;;;;7.25;1.88;;;18.10;65.90;;;;;;21163789;28;20047;-61
2022/10/22 19:00:33;;;;;;;4.32;1.75;;;17.80;72.40;;;;;;21163726;28;20180;-62
2022/10/22 19:10:35;;;;;;;4.03;1.13;;;17.50;74.60;;;;;;21128641;28;20050;-62
2022/10/22 19:20:36;;;;;;;4.05;1.30;;;17.50;75.20;;;;;;21163183;28;20052;-66
2022/10/22 19:30:43;;;;;;;2.30;1.10;;;17.40;76.20;;;;;;21162495;28;20404;-63
2022/10/22 19:40:44;;;;;;;4.90;1.30;;;17.60;76.20;;;;;;21161882;28;20047;-61
2022/10/22 19:50:46;;;;;;;2.60;1.20;;;17.70;75.90;;;;;;21161341;28;20133;-62
2022/10/22 20:00:48;;;;;;;3.30;1.67;;;17.70;75.50;;;;;;21161870;28;20055;-61
2022/10/22 20:10:50;;;;;;;1.95;1.13;;;17.80;76.00;;;;;;21160526;28;20055;-64
2022/10/22 20:20:51;;;;;;;3.42;1.70;;;17.70;75.40;;;;;;21160733;28;20469;-62
2022/10/22 20:30:53;;;;;;;6.03;1.65;;;17.70;75.90;;;;;;21175099;28;20048;-63
2022/10/22 20:41:06;;;;;;;2.67;1.42;;;17.50;76.70;;;;;;21174195;28;20054;-64
2022/10/22 20:51:07;;;;;;;3.35;1.60;;;17.70;75.10;;;;;;21173494;28;20060;-63
2022/10/22 21:01:11;;;;;;;4.25;2.42;;;17.80;75.50;;;;;;21173156;28;20077;-61
2022/10/22 21:11:12;;;;;;;3.90;2.30;;;17.90;75.60;;;;;;21172068;28;20051;-65
2022/10/22 21:21:16;;;;;;;5.57;1.95;;;17.80;75.90;;;;;;21172673;28;20499;-62
2022/10/22 21:31:23;;;;;;;6.53;2.58;;;17.70;76.60;;;;;;21172630;28;20051;-61
2022/10/22 21:41:24;;;;;;;4.28;2.40;;;17.60;77.40;;;;;;21169509;28;20104;-62
2022/10/22 21:51:28;;;;;;;3.70;1.70;;;17.50;77.50;;;;;;21150168;28;20580;-63
2022/10/22 22:01:30;;;;;;;3.40;1.60;;;17.40;77.80;;;;;;21168659;28;20054;-64
2022/10/22 22:11:31;;;;;;;4.05;2.10;;;17.30;78.20;;;;;;21167927;28;20116;-62
2022/10/22 22:21:38;;;;;;;5.18;1.98;;;17.40;78.10;;;;;;21166908;28;20043;-64
2022/10/22 22:31:39;;;;;;;3.72;1.80;;;17.60;77.80;;;;;;21165629;28;20059;-61
2022/10/22 22:41:42;;;;;;;2.97;1.60;;;17.60;77.40;;;;;;21164882;28;20453;-62
2022/10/22 22:51:43;;;;;;;3.60;2.10;;;17.50;76.60;;;;;;21164000;28;20074;-63
2022/10/22 23:01:47;;;;;;;2.65;1.90;;;17.50;76.70;;;;;;21164471;28;20047;-63
2022/10/22 23:11:49;;;;;;;2.40;1.23;;;17.60;76.90;;;;;;21163705;28;20048;-62
2022/10/22 23:21:53;;;;;;;3.37;1.50;;;17.50;76.60;;;;;;21164054;28;20506;-62
2022/10/22 23:31:59;;;;;;;3.20;1.50;;;17.50;77.00;;;;;;21164459;28;20083;-61
2022/10/22 23:42:01;;;;;;;3.40;1.30;;;17.60;76.50;;;;;;21162225;28;20047;-64
2022/10/22 23:52:03;;;;;;;2.95;1.70;;;17.50;76.20;;;;;;21162628;28;20044;-62
